Time;durP1;ratioP1;P1;durP2;ratioP2;P2;SDS_P1;SDS_P2;PMS_P1;PMS_P2;Temp;Humidity;BMP_temperature;BMP_pressure;BME280_temperature;BME280_humidity;BME280_pressure;Samples;Min_cycle;Max_cycle;Signal;HPM_P1;HPM_P2
2022/03/28 00:01:59;;;;;;;;;;;;;;;5.32;51.91;96265.09;5113956;28;1720;-52
2022/03/28 00:04:27;;;;;;;;;;;;;;;5.45;51.58;96269.50;5113171;28;1642;-52
2022/03/28 00:06:55;;;;;;;;;;;;;;;5.75;50.59;96270.16;5114080;28;1823;-51
2022/03/28 00:09:23;;;;;;;;;;;;;;;5.74;51.50;96271.97;5114166;28;1104;-52
2022/03/28 00:11:52;;;;;;;;;;;;;;;5.52;50.85;96263.75;5111438;28;1567;-51
2022/03/28 00:14:22;;;;;;;;;;;;;;;5.14;51.62;96260.06;5112880;28;1376;-51
2022/03/28 00:16:51;;;;;;;;;;;;;;;4.97;52.24;96257.66;5112553;28;2017;-51
2022/03/28 00:19:17;;;;;;;;;;;;;;;5.14;52.02;96257.41;5112719;28;1996;-51
2022/03/28 00:21:47;;;;;;;;;;;;;;;4.98;52.07;96254.06;5112383;28;1681;-51
2022/03/28 00:24:15;;;;;;;;;;;;;;;4.76;52.23;96250.16;5112863;28;1032;-51
2022/03/28 00:26:44;;;;;;;;;;;;;;;4.40;53.85;96253.31;5112523;28;1581;-52
2022/03/28 00:29:12;;;;;;;;;;;;;;;4.41;53.75;96245.28;5113399;28;1043;-51
2022/03/28 00:31:41;;;;;;;;;;;;;;;4.69;53.17;96246.19;5112619;28;1807;-51
2022/03/28 00:34:10;;;;;;;;;;;;;;;4.57;52.96;96246.97;5112587;28;973;-51
2022/03/28 00:36:41;;;;;;;;;;;;;;;4.57;53.66;96246.97;5112309;28;1688;-51
2022/03/28 00:39:10;;;;;;;;;;;;;;;4.58;53.64;96244.22;5112249;28;1913;-51
2022/03/28 00:41:39;;;;;;;;;;;;;;;4.53;53.90;96245.47;5112660;28;1558;-51
2022/03/28 00:44:09;;;;;;;;;;;;;;;4.58;53.39;96246.03;5112065;28;1763;-51
2022/03/28 00:46:39;;;;;;;;;;;;;;;4.70;53.49;96255.84;5095881;28;1459;-51
2022/03/28 00:49:08;;;;;;;;;;;;;;;4.86;53.20;96253.06;5112014;28;1491;-51
2022/03/28 00:51:35;;;;;;;;;;;;;;;4.76;53.03;96239.56;5113366;28;1212;-51
2022/03/28 00:54:05;;;;;;;;;;;;;;;4.71;53.74;96246.94;5095849;28;1526;-51
2022/03/28 00:56:33;;;;;;;;;;;;;;;4.27;53.95;96253.25;5113318;28;1084;-51
2022/03/28 00:59:00;;;;;;;;;;;;;;;3.79;55.22;96244.72;5113496;28;1908;-51
2022/03/28 01:01:29;;;;;;;;;;;;;;;3.94;55.72;96241.16;5112118;28;1044;-53
2022/03/28 01:03:59;;;;;;;;;;;;;;;4.07;55.30;96242.09;5112079;28;1063;-53
2022/03/28 01:06:27;;;;;;;;;;;;;;;4.22;54.78;96234.16;5113632;28;1016;-50
2022/03/28 01:08:57;;;;;;;;;;;;;;;4.19;55.04;96236.97;5112028;28;1825;-50
2022/03/28 01:11:26;;;;;;;;;;;;;;;4.28;54.46;96237.25;5112407;28;1515;-50
2022/03/28 01:13:53;;;;;;;;;;;;;;;4.16;55.07;96231.91;5113037;28;977;-50
2022/03/28 01:16:23;;;;;;;;;;;;;;;4.30;55.21;96231.88;5111966;28;1743;-50
2022/03/28 01:18:53;;;;;;;;;;;;;;;4.49;54.57;96229.75;5111976;28;1982;-50
2022/03/28 01:21:23;;;;;;;;;;;;;;;4.63;53.84;96228.03;5112172;28;1004;-50
2022/03/28 01:23:52;;;;;;;;;;;;;;;4.66;54.23;96227.84;5116150;28;1712;-50
2022/03/28 01:26:23;;;;;;;;;;;;;;;4.51;54.42;96227.00;5115921;28;1765;-50
2022/03/28 01:28:52;;;;;;;;;;;;;;;4.35;54.55;96224.50;5116168;28;961;-51
2022/03/28 01:31:22;;;;;;;;;;;;;;;4.28;54.76;96224.00;5116266;28;983;-50
2022/03/28 01:33:51;;;;;;;;;;;;;;;4.46;54.53;96222.03;5116148;28;1573;-50
2022/03/28 01:36:25;;;;;;;;;;;;;;;4.26;54.64;96233.00;5115949;28;1020;-50
2022/03/28 01:38:53;;;;;;;;;;;;;;;3.88;55.47;96239.72;5116182;28;1910;-50
2022/03/28 01:41:20;;;;;;;;;;;;;;;3.76;56.18;96237.00;5116869;28;1004;-50
2022/03/28 01:43:49;;;;;;;;;;;;;;;3.88;55.62;96236.22;5115433;28;1661;-50
2022/03/28 01:46:18;;;;;;;;;;;;;;;3.86;55.72;96231.03;5115620;28;1570;-50
2022/03/28 01:48:45;;;;;;;;;;;;;;;3.54;56.50;96232.97;5116941;28;1092;-50
2022/03/28 01:51:15;;;;;;;;;;;;;;;3.40;56.98;96231.16;5115312;28;1693;-50
2022/03/28 01:53:43;;;;;;;;;;;;;;;3.24;57.14;96227.72;5117213;28;1564;-50
2022/03/28 01:56:12;;;;;;;;;;;;;;;3.39;57.26;96225.97;5115506;28;1579;-50
2022/03/28 01:58:40;;;;;;;;;;;;;;;3.68;56.18;96225.06;5115744;28;1531;-50
2022/03/28 02:01:07;;;;;;;;;;;;;;;3.94;56.55;96221.78;5116953;28;1981;-50
2022/03/28 02:03:35;;;;;;;;;;;;;;;3.75;56.50;96232.63;5115038;28;1087;-50
2022/03/28 02:06:06;;;;;;;;;;;;;;;3.71;56.83;96226.69;5115378;28;1024;-50
2022/03/28 02:08:34;;;;;;;;;;;;;;;3.56;56.93;96224.97;5115423;28;1036;-50
2022/03/28 02:11:03;;;;;;;;;;;;;;;3.78;56.79;96225.38;5116445;28;1028;-50
2022/03/28 02:13:32;;;;;;;;;;;;;;;3.82;56.66;96208.34;5114900;28;1559;-50
2022/03/28 02:16:01;;;;;;;;;;;;;;;3.74;56.11;96223.84;5115316;28;1012;-51
2022/03/28 02:18:30;;;;;;;;;;;;;;;3.55;56.71;96210.88;5115103;28;1103;-50
2022/03/28 02:21:00;;;;;;;;;;;;;;;3.40;57.40;96219.75;5115078;28;1909;-50
2022/03/28 02:23:29;;;;;;;;;;;;;;;3.37;57.09;96209.34;5114908;28;1044;-50
2022/03/28 02:25:59;;;;;;;;;;;;;;;3.18;58.00;96213.06;5115515;28;1012;-50
2022/03/28 02:28:29;;;;;;;;;;;;;;;3.10;58.60;96215.31;5114500;28;1617;-50
2022/03/28 02:30:58;;;;;;;;;;;;;;;3.45;57.18;96209.72;5114806;28;964;-50
2022/03/28 02:33:27;;;;;;;;;;;;;;;3.83;56.36;96207.44;5114912;28;1581;-50
2022/03/28 02:35:57;;;;;;;;;;;;;;;3.88;56.44;96207.97;5114725;28;1059;-50
2022/03/28 02:38:27;;;;;;;;;;;;;;;3.45;57.00;96213.25;5114556;28;1570;-50
2022/03/28 02:40:56;;;;;;;;;;;;;;;3.32;57.86;96214.91;5114658;28;1908;-50
2022/03/28 02:43:23;;;;;;;;;;;;;;;3.32;57.66;96206.97;5115804;28;1051;-50
2022/03/28 02:45:49;;;;;;;;;;;;;;;3.25;57.85;96210.91;5116169;28;1885;-50
2022/03/28 02:48:15;;;;;;;;;;;;;;;3.13;57.85;96208.06;5115731;28;1842;-51
2022/03/28 02:50:44;;;;;;;;;;;;;;;3.27;57.71;96219.59;5115922;28;1149;-50
2022/03/28 02:53:11;;;;;;;;;;;;;;;3.02;58.75;96222.84;5115749;28;1078;-50
2022/03/28 02:55:38;;;;;;;;;;;;;;;2.98;58.35;96229.22;5116070;27;1027;-51
2022/03/28 02:58:07;;;;;;;;;;;;;;;3.13;58.62;96221.28;5114780;28;1704;-50
2022/03/28 03:00:34;;;;;;;;;;;;;;;3.10;58.23;96226.72;5114599;28;1902;-50
2022/03/28 03:03:03;;;;;;;;;;;;;;;2.98;58.77;96223.94;5114581;28;1491;-50
2022/03/28 03:05:30;;;;;;;;;;;;;;;3.08;58.64;96223.31;5116112;28;1055;-50
2022/03/28 03:07:59;;;;;;;;;;;;;;;3.02;58.78;96217.56;5114594;28;1789;-50
2022/03/28 03:10:27;;;;;;;;;;;;;;;2.80;59.42;96218.78;5114508;28;1214;-50
2022/03/28 03:12:53;;;;;;;;;;;;;;;2.86;59.60;96222.84;5115259;28;1028;-50
2022/03/28 03:15:20;;;;;;;;;;;;;;;2.97;59.70;96227.53;5114276;28;1068;-50
2022/03/28 03:17:46;;;;;;;;;;;;;;;2.95;58.96;96222.31;5114258;28;1263;-50
2022/03/28 03:20:13;;;;;;;;;;;;;;;2.72;59.59;96228.94;5097357;28;1919;-50
2022/03/28 03:22:40;;;;;;;;;;;;;;;2.57;60.39;96224.50;5114450;28;1032;-50
2022/03/28 03:25:07;;;;;;;;;;;;;;;2.70;60.31;96223.72;5113952;28;925;-50
2022/03/28 03:27:35;;;;;;;;;;;;;;;2.75;60.09;96215.53;5115528;28;1047;-50
2022/03/28 03:30:08;;;;;;;;;;;;;;;2.84;60.09;96228.22;5114007;28;1922;-50
2022/03/28 03:32:35;;;;;;;;;;;;;;;2.86;59.29;96226.34;5115343;28;1130;-50
2022/03/28 03:35:03;;;;;;;;;;;;;;;2.42;60.63;96232.34;5114850;28;1033;-50
2022/03/28 03:37:29;;;;;;;;;;;;;;;2.21;61.36;96228.25;5113951;28;1690;-50
2022/03/28 03:39:56;;;;;;;;;;;;;;;2.35;61.62;96233.59;5114929;28;2309;-50
2022/03/28 03:42:23;;;;;;;;;;;;;;;2.52;60.65;96222.97;5114863;28;1060;-50
2022/03/28 03:44:49;;;;;;;;;;;;;;;2.78;60.02;96219.81;5114739;28;1029;-50
2022/03/28 03:47:16;;;;;;;;;;;;;;;2.93;59.66;96226.84;5113810;28;1152;-50
2022/03/28 03:49:43;;;;;;;;;;;;;;;3.03;59.21;96235.94;5113404;28;1585;-50
2022/03/28 03:52:10;;;;;;;;;;;;;;;2.61;60.59;96236.59;5114798;28;1180;-50
2022/03/28 03:54:37;;;;;;;;;;;;;;;2.45;60.91;96236.63;5114662;28;1178;-50
2022/03/28 03:57:03;;;;;;;;;;;;;;;2.62;60.81;96239.16;5114803;28;1204;-50
2022/03/28 03:59:30;;;;;;;;;;;;;;;2.70;60.61;96239.56;5114624;28;1910;-50
2022/03/28 04:01:57;;;;;;;;;;;;;;;2.63;60.50;96237.38;5114636;27;1218;-50
2022/03/28 04:04:24;;;;;;;;;;;;;;;2.47;61.39;96240.03;5096789;28;1441;-50
2022/03/28 04:06:52;;;;;;;;;;;;;;;2.52;61.03;96236.19;5113191;28;1570;-50
2022/03/28 04:09:19;;;;;;;;;;;;;;;2.30;61.24;96243.59;5113329;28;1088;-51
2022/03/28 04:11:47;;;;;;;;;;;;;;;2.37;61.33;96239.66;5112956;28;1032;-50
2022/03/28 04:14:13;;;;;;;;;;;;;;;2.50;60.67;96248.63;5114469;28;1044;-50
2022/03/28 04:16:39;;;;;;;;;;;;;;;2.26;61.39;96247.34;5115028;28;995;-50
2022/03/28 04:19:06;;;;;;;;;;;;;;;2.14;62.24;96246.19;5114484;28;1979;-50
2022/03/28 04:21:32;;;;;;;;;;;;;;;2.37;61.51;96244.09;5115130;28;1630;-50
2022/03/28 04:24:02;;;;;;;;;;;;;;;2.50;60.99;96245.97;5113116;28;1683;-50
2022/03/28 04:26:30;;;;;;;;;;;;;;;2.83;60.49;96239.75;5113405;28;1570;-51
2022/03/28 04:28:58;;;;;;;;;;;;;;;3.13;59.70;96233.63;5113298;28;1004;-50
2022/03/28 04:31:26;;;;;;;;;;;;;;;3.25;59.35;96237.34;5114333;28;1561;-50
2022/03/28 04:33:52;;;;;;;;;;;;;;;3.19;59.57;96237.69;5113378;28;1111;-51
2022/03/28 04:36:21;;;;;;;;;;;;;;;2.77;60.16;96236.56;5114615;28;1027;-51
2022/03/28 04:38:49;;;;;;;;;;;;;;;2.57;61.05;96235.91;5113565;28;1506;-51
2022/03/28 04:41:17;;;;;;;;;;;;;;;2.71;61.29;96245.69;5112844;28;1905;-51
2022/03/28 04:43:43;;;;;;;;;;;;;;;2.88;61.01;96244.75;5095655;28;1511;-51
2022/03/28 04:46:11;;;;;;;;;;;;;;;3.03;60.31;96248.31;5114047;28;1786;-51
2022/03/28 04:48:38;;;;;;;;;;;;;;;3.23;60.22;96245.38;5113963;28;1561;-51
2022/03/28 04:51:04;;;;;;;;;;;;;;;3.43;58.80;96249.47;5112839;28;1185;-51
2022/03/28 04:53:32;;;;;;;;;;;;;;;3.42;59.27;96249.59;5113394;28;1550;-51
2022/03/28 04:55:59;;;;;;;;;;;;;;;3.69;59.24;96252.38;5112413;28;952;-51
2022/03/28 04:58:25;;;;;;;;;;;;;;;4.17;57.96;96246.81;5114196;28;1037;-52
2022/03/28 05:00:52;;;;;;;;;;;;;;;4.01;58.76;96239.81;5112566;28;1990;-51
2022/03/28 05:03:19;;;;;;;;;;;;;;;4.14;59.19;96252.31;5113209;28;1014;-51
2022/03/28 05:05:45;;;;;;;;;;;;;;;4.65;58.21;96244.69;5113979;28;1036;-51
2022/03/28 05:08:12;;;;;;;;;;;;;;;5.08;57.07;96248.06;5112784;28;1029;-51
2022/03/28 05:10:40;;;;;;;;;;;;;;;5.20;57.10;96241.09;5113969;28;1031;-51
2022/03/28 05:13:07;;;;;;;;;;;;;;;5.18;57.52;96255.38;5113700;28;1339;-51
2022/03/28 05:15:34;;;;;;;;;;;;;;;5.37;57.75;96244.41;5112912;28;1048;-51
2022/03/28 05:18:02;;;;;;;;;;;;;;;5.75;56.33;96243.63;5112748;28;1020;-51
2022/03/28 05:20:28;;;;;;;;;;;;;;;5.99;56.37;96241.13;5113733;28;1988;-51
2022/03/28 05:22:58;;;;;;;;;;;;;;;6.26;56.04;96251.66;5112784;28;1644;-51
2022/03/28 05:25:24;;;;;;;;;;;;;;;6.65;55.70;96249.78;5113642;28;1027;-51
2022/03/28 05:27:50;;;;;;;;;;;;;;;6.73;55.47;96251.88;5113929;28;1043;-51
2022/03/28 05:30:17;;;;;;;;;;;;;;;6.78;54.86;96255.91;5112261;28;1032;-51
2022/03/28 05:32:46;;;;;;;;;;;;;;;6.91;55.04;96258.53;5112607;28;1024;-52
2022/03/28 05:35:13;;;;;;;;;;;;;;;6.99;53.83;96252.66;5113745;28;1486;-51
2022/03/28 05:37:40;;;;;;;;;;;;;;;7.36;52.48;96253.44;5113673;28;1032;-51
2022/03/28 05:40:09;;;;;;;;;;;;;;;7.87;51.77;96259.41;5112366;28;1991;-51
2022/03/28 05:42:36;;;;;;;;;;;;;;;7.98;50.74;96262.94;5113550;28;1173;-51
2022/03/28 05:45:03;;;;;;;;;;;;;;;7.87;51.24;96272.72;5113467;28;1024;-51
2022/03/28 05:47:29;;;;;;;;;;;;;;;8.07;50.68;96269.38;5113813;28;1021;-51
2022/03/28 05:49:57;;;;;;;;;;;;;;;8.29;49.80;96262.38;5113440;28;1183;-52
2022/03/28 05:52:25;;;;;;;;;;;;;;;8.40;49.87;96262.38;5095581;28;1610;-51
2022/03/28 05:54:51;;;;;;;;;;;;;;;8.55;49.88;96269.22;5112143;28;1103;-51
2022/03/28 05:57:18;;;;;;;;;;;;;;;8.86;48.66;96268.59;5113669;28;1031;-51
2022/03/28 05:59:48;;;;;;;;;;;;;;;8.98;48.21;96265.78;5112394;28;1920;-51
2022/03/28 06:02:16;;;;;;;;;;;;;;;9.08;48.60;96265.88;5112435;28;992;-52
2022/03/28 06:04:44;;;;;;;;;;;;;;;9.18;46.95;96276.66;5112361;28;1116;-51
2022/03/28 06:07:12;;;;;;;;;;;;;;;9.48;47.49;96273.28;5112056;28;2516;-51
2022/03/28 06:09:39;;;;;;;;;;;;;;;9.44;47.12;96273.69;5115759;28;1039;-51
2022/03/28 06:12:05;;;;;;;;;;;;;;;9.49;46.97;96266.97;5116788;28;1026;-51
2022/03/28 06:14:32;;;;;;;;;;;;;;;9.65;47.39;96263.03;5115863;28;1060;-51
2022/03/28 06:16:59;;;;;;;;;;;;;;;9.60;47.00;96268.78;5117028;28;995;-51
2022/03/28 06:26:53;;;;;;;;;;;;;;;10.18;45.55;96278.19;4867627;27;1370532;-51
2022/03/28 06:29:20;;;;;;;;;;;;;;;10.72;44.63;96274.44;5152571;27;994;-50
2022/03/28 06:31:46;;;;;;;;;;;;;;;11.22;43.10;96269.06;5151947;27;1015;-51
2022/03/28 06:34:12;;;;;;;;;;;;;;;11.22;43.51;96269.06;5152195;27;1043;-51
2022/03/28 06:36:39;;;;;;;;;;;;;;;11.52;42.64;96275.34;5151824;27;1074;-50
2022/03/28 06:39:05;;;;;;;;;;;;;;;11.72;42.57;96277.03;5152168;27;1014;-51
2022/03/28 06:41:31;;;;;;;;;;;;;;;11.75;42.93;96275.91;5151881;27;1995;-51
2022/03/28 06:43:57;;;;;;;;;;;;;;;11.61;43.01;96277.19;5151894;27;1055;-50
2022/03/28 06:46:23;;;;;;;;;;;;;;;11.88;42.88;96271.09;5151649;27;1090;-50
2022/03/28 06:48:50;;;;;;;;;;;;;;;13.32;40.46;96271.84;5151631;27;1031;-51
2022/03/28 06:51:16;;;;;;;;;;;;;;;15.94;35.40;96271.81;5151781;27;1212;-51
2022/03/28 06:53:42;;;;;;;;;;;;;;;17.62;32.27;96274.66;5151983;27;1015;-51
2022/03/28 06:56:08;;;;;;;;;;;;;;;18.99;29.86;96285.59;5151494;27;1122;-51
2022/03/28 06:58:34;;;;;;;;;;;;;;;19.20;29.82;96277.59;5151658;27;1019;-51
2022/03/28 07:01:00;;;;;;;;;;;;;;;20.08;27.58;96273.03;5151544;27;1039;-51
2022/03/28 07:03:26;;;;;;;;;;;;;;;21.09;25.92;96273.88;5151387;27;1914;-52
2022/03/28 07:05:52;;;;;;;;;;;;;;;22.65;24.59;96271.28;5151636;27;968;-51
2022/03/28 07:08:18;;;;;;;;;;;;;;;22.44;24.43;96276.94;5151442;27;1093;-52
2022/03/28 07:10:45;;;;;;;;;;;;;;;22.21;24.77;96268.09;5151423;27;1012;-52
2022/03/28 07:13:11;;;;;;;;;;;;;;;23.08;24.04;96270.03;5151268;27;1027;-51
2022/03/28 07:15:37;;;;;;;;;;;;;;;24.11;23.15;96267.34;5151399;27;1063;-52
2022/03/28 07:18:06;;;;;;;;;;;;;;;24.01;22.61;96266.97;5151038;27;2299;-52
2022/03/28 07:20:32;;;;;;;;;;;;;;;21.32;25.04;96257.25;5151490;27;1002;-52
2022/03/28 07:22:59;;;;;;;;;;;;;;;17.68;29.84;96249.59;5150947;27;1993;-51
2022/03/28 07:25:25;;;;;;;;;;;;;;;17.53;31.02;96257.66;5150855;27;1075;-51
2022/03/28 07:27:52;;;;;;;;;;;;;;;21.26;27.09;96262.47;5151023;27;1055;-51
2022/03/28 07:30:19;;;;;;;;;;;;;;;24.32;23.08;96257.97;5151121;27;2184;-52
2022/03/28 07:32:45;;;;;;;;;;;;;;;26.31;21.34;96258.84;5149864;27;1043;-52
2022/03/28 07:35:12;;;;;;;;;;;;;;;26.15;21.44;96268.56;5137136;27;1047;-52
2022/03/28 07:37:39;;;;;;;;;;;;;;;24.44;22.60;96258.09;5137216;27;1052;-52
2022/03/28 07:40:06;;;;;;;;;;;;;;;21.64;25.48;96259.34;5137365;27;939;-51
2022/03/28 07:42:33;;;;;;;;;;;;;;;20.69;27.27;96251.84;5136754;27;1995;-51
2022/03/28 07:44:59;;;;;;;;;;;;;;;21.58;26.49;96254.69;5137262;27;980;-52
2022/03/28 07:47:26;;;;;;;;;;;;;;;21.92;25.81;96252.09;5136710;27;2006;-51
2022/03/28 07:49:52;;;;;;;;;;;;;;;22.18;25.20;96249.41;5137124;27;1008;-51
2022/03/28 07:52:18;;;;;;;;;;;;;;;22.05;25.89;96254.00;5136683;27;1223;-52
2022/03/28 07:54:46;;;;;;;;;;;;;;;21.13;27.18;96247.97;5136838;27;1059;-51
2022/03/28 07:57:14;;;;;;;;;;;;;;;21.25;27.01;96244.47;5136937;27;1044;-51
2022/03/28 07:59:43;;;;;;;;;;;;;;;21.05;26.72;96248.97;5136589;27;1048;-51
2022/03/28 08:02:10;;;;;;;;;;;;;;;21.97;26.15;96247.72;5136893;27;1910;-51
2022/03/28 08:04:36;;;;;;;;;;;;;;;20.88;27.45;96240.28;5136658;27;1044;-51
2022/03/28 08:07:05;;;;;;;;;;;;;;;19.70;28.83;96227.09;5136697;27;1047;-51
2022/03/28 08:09:31;;;;;;;;;;;;;;;18.25;31.35;96227.56;5136777;27;1011;-50
2022/03/28 08:11:57;;;;;;;;;;;;;;;17.09;33.09;96221.22;5136300;27;972;-51
2022/03/28 08:14:23;;;;;;;;;;;;;;;16.93;32.85;96213.16;5136537;27;996;-51
2022/03/28 08:16:49;;;;;;;;;;;;;;;16.77;33.79;96219.44;5136303;27;1203;-51
2022/03/28 08:19:15;;;;;;;;;;;;;;;16.77;33.89;96216.75;5136544;27;1032;-51
2022/03/28 08:21:41;;;;;;;;;;;;;;;17.07;33.70;96215.13;5136468;27;1905;-51
2022/03/28 08:24:07;;;;;;;;;;;;;;;16.98;33.68;96219.72;5136181;27;1048;-50
2022/03/28 08:26:33;;;;;;;;;;;;;;;16.77;33.71;96208.63;5136082;27;1087;-51
2022/03/28 08:28:59;;;;;;;;;;;;;;;17.05;33.09;96203.63;5136266;27;995;-51
2022/03/28 08:31:25;;;;;;;;;;;;;;;17.15;34.29;96200.75;5136288;27;1126;-51
2022/03/28 08:33:51;;;;;;;;;;;;;;;17.14;33.67;96204.47;5135777;27;1102;-51
2022/03/28 08:36:17;;;;;;;;;;;;;;;17.25;33.59;96209.47;5136220;27;961;-51
2022/03/28 08:38:43;;;;;;;;;;;;;;;17.30;33.66;96196.28;5136129;27;984;-49
2022/03/28 08:41:14;;;;;;;;;;;;;;;17.42;33.88;96194.00;5136154;27;988;-50
2022/03/28 08:43:41;;;;;;;;;;;;;;;17.08;33.58;96188.94;5135785;27;987;-50
2022/03/28 08:46:08;;;;;;;;;;;;;;;17.14;34.05;96193.66;5134989;27;1061;-50
2022/03/28 08:48:35;;;;;;;;;;;;;;;17.13;34.02;96178.44;5135937;27;1067;-50
2022/03/28 08:51:01;;;;;;;;;;;;;;;17.16;34.28;96176.22;5131719;27;1160;-50
2022/03/28 08:53:27;;;;;;;;;;;;;;;16.77;34.79;96181.63;5114931;28;1048;-50
2022/03/28 08:55:53;;;;;;;;;;;;;;;16.51;33.99;96169.22;5115165;28;969;-50
2022/03/28 08:58:19;;;;;;;;;;;;;;;16.16;34.67;96167.75;5114925;28;1031;-50
2022/03/28 09:00:45;;;;;;;;;;;;;;;16.30;35.35;96158.16;5115067;28;1055;-50
2022/03/28 09:03:11;;;;;;;;;;;;;;;16.29;35.23;96151.06;5114871;28;1991;-50
2022/03/28 09:05:39;;;;;;;;;;;;;;;16.08;35.76;96148.91;5115060;28;960;-50
2022/03/28 09:08:06;;;;;;;;;;;;;;;16.24;35.78;96150.72;5114943;28;1030;-50
2022/03/28 09:10:33;;;;;;;;;;;;;;;16.35;35.79;96139.56;5114691;28;1140;-49
2022/03/28 09:13:08;;;;;;;;;;;;;;;16.23;35.96;96141.78;5114452;28;1032;-50
2022/03/28 09:15:44;;;;;;;;;;;;;;;16.15;35.13;96141.81;5114432;28;1064;-50
2022/03/28 09:18:24;;;;;;;;;;;;;;;16.38;35.84;96131.13;5114873;28;984;-50
2022/03/28 09:20:51;;;;;;;;;;;;;;;16.37;36.27;96132.13;5114552;28;1027;-50
2022/03/28 09:23:29;;;;;;;;;;;;;;;16.35;36.16;96121.53;5114549;28;1988;-51
2022/03/28 09:25:56;;;;;;;;;;;;;;;16.60;35.90;96124.16;5114372;28;1240;-50
2022/03/28 09:28:37;;;;;;;;;;;;;;;16.80;35.71;96127.25;5114473;28;1052;-50
2022/03/28 09:31:15;;;;;;;;;;;;;;;17.03;35.36;96115.69;5114156;28;1052;-50
2022/03/28 09:33:57;;;;;;;;;;;;;;;17.13;35.19;96113.59;5114323;28;968;-50
2022/03/28 09:36:53;;;;;;;;;;;;;;;17.07;34.93;96117.00;5114521;28;1000;-50
2022/03/28 09:39:19;;;;;;;;;;;;;;;17.13;35.04;96106.34;5109384;28;1316;-50
2022/03/28 09:41:46;;;;;;;;;;;;;;;17.39;35.10;96104.31;5113865;28;2360;-50
2022/03/28 09:44:12;;;;;;;;;;;;;;;17.38;35.04;96103.47;5113976;28;1024;-50
2022/03/28 09:46:39;;;;;;;;;;;;;;;17.49;35.08;96097.66;5114308;28;1007;-50
2022/03/28 09:49:05;;;;;;;;;;;;;;;17.41;35.49;96096.84;5114154;28;1048;-50
2022/03/28 09:51:32;;;;;;;;;;;;;;;17.35;35.23;96088.44;5122645;27;1133;-50
2022/03/28 09:53:58;;;;;;;;;;;;;;;17.41;35.43;96086.03;5134733;27;1044;-50
2022/03/28 09:56:25;;;;;;;;;;;;;;;17.49;35.02;96085.97;5134541;27;977;-50
2022/03/28 09:58:59;;;;;;;;;;;;;;;17.41;34.51;96080.63;5134395;27;1064;-51
2022/03/28 10:01:35;;;;;;;;;;;;;;;17.29;35.29;96066.72;5134579;27;1906;-50
2022/03/28 10:04:05;;;;;;;;;;;;;;;17.24;35.39;96064.53;5134298;27;1028;-50
2022/03/28 10:06:32;;;;;;;;;;;;;;;17.17;35.25;96058.19;5135031;27;977;-50
2022/03/28 10:08:58;;;;;;;;;;;;;;;16.96;35.48;96056.13;5134384;27;1047;-50
2022/03/28 10:11:24;;;;;;;;;;;;;;;16.98;35.23;96046.81;5134155;27;1019;-51
2022/03/28 10:13:50;;;;;;;;;;;;;;;17.11;34.96;96042.66;5134347;27;990;-51
2022/03/28 10:16:17;;;;;;;;;;;;;;;17.05;34.90;96032.59;5134067;27;1047;-51
2022/03/28 10:18:47;;;;;;;;;;;;;;;17.14;34.88;96037.75;5134393;27;1854;-51
2022/03/28 10:21:27;;;;;;;;;;;;;;;17.34;35.29;96027.31;5134420;27;1059;-50
2022/03/28 10:24:02;;;;;;;;;;;;;;;17.46;34.87;96016.06;5134462;27;961;-51
2022/03/28 10:26:30;;;;;;;;;;;;;;;17.62;35.49;96015.06;5134072;27;1099;-51
2022/03/28 10:29:07;;;;;;;;;;;;;;;17.63;33.50;96014.88;5134355;27;957;-51
2022/03/28 10:31:34;;;;;;;;;;;;;;;17.62;34.58;96006.94;5134108;27;952;-51
2022/03/28 10:34:00;;;;;;;;;;;;;;;17.66;34.56;96008.25;5134392;27;1019;-51
2022/03/28 10:36:28;;;;;;;;;;;;;;;17.66;33.30;95992.88;5134256;27;1070;-50
2022/03/28 10:38:57;;;;;;;;;;;;;;;17.46;34.19;95992.56;5134047;27;998;-51
2022/03/28 10:41:25;;;;;;;;;;;;;;;17.59;34.27;95997.34;5134172;27;1906;-51
2022/03/28 10:43:51;;;;;;;;;;;;;;;17.83;34.30;95988.13;5133956;27;972;-51
2022/03/28 10:46:19;;;;;;;;;;;;;;;17.95;33.60;95985.84;5133873;28;1007;-50
2022/03/28 10:48:53;;;;;;;;;;;;;;;18.10;33.89;95977.72;5134231;27;961;-51
2022/03/28 10:51:21;;;;;;;;;;;;;;;18.37;33.95;95969.94;5127442;27;1148;-51
2022/03/28 10:53:47;;;;;;;;;;;;;;;18.57;33.25;95970.97;5113634;28;965;-50
2022/03/28 10:56:18;;;;;;;;;;;;;;;18.61;33.31;95968.72;5113440;28;1048;-51
2022/03/28 10:58:46;;;;;;;;;;;;;;;18.86;33.16;95975.50;5113427;28;1091;-51
2022/03/28 11:01:12;;;;;;;;;;;;;;;19.12;32.84;95957.81;5113206;28;955;-51
2022/03/28 11:03:39;;;;;;;;;;;;;;;19.43;32.48;95962.88;5113555;28;1979;-51
2022/03/28 11:06:05;;;;;;;;;;;;;;;19.51;32.96;95957.31;5113379;28;1074;-51
2022/03/28 11:08:38;;;;;;;;;;;;;;;19.47;32.60;95947.91;5114377;28;1024;-50
2022/03/28 11:11:13;;;;;;;;;;;;;;;19.35;32.12;95945.91;5117278;28;1048;-51
2022/03/28 11:13:39;;;;;;;;;;;;;;;19.21;32.26;95937.66;5117205;28;1000;-51
2022/03/28 11:16:05;;;;;;;;;;;;;;;19.35;32.53;95937.78;5116790;28;1059;-51
2022/03/28 11:18:31;;;;;;;;;;;;;;;19.62;32.20;95934.22;5117019;28;968;-51
2022/03/28 11:20:57;;;;;;;;;;;;;;;19.79;31.97;95923.94;5116986;28;991;-51
2022/03/28 11:23:23;;;;;;;;;;;;;;;19.84;32.15;95923.31;5116871;28;1992;-50
2022/03/28 11:25:51;;;;;;;;;;;;;;;19.87;32.26;95910.19;5116472;27;1392;-51
2022/03/28 11:28:24;;;;;;;;;;;;;;;19.73;32.10;95907.59;5116892;28;1071;-51
2022/03/28 11:30:50;;;;;;;;;;;;;;;19.56;32.41;95897.06;5116360;28;1052;-51
2022/03/28 11:33:17;;;;;;;;;;;;;;;19.52;32.05;95895.78;5116961;28;1047;-51
2022/03/28 11:36:09;;;;;;;;;;;;;;;19.32;32.22;95892.94;5116802;28;964;-51
2022/03/28 11:38:39;;;;;;;;;;;;;;;19.28;32.56;95886.22;5108006;28;1406;-51
2022/03/28 11:41:07;;;;;;;;;;;;;;;19.23;32.29;95885.97;5116448;28;949;-51
2022/03/28 11:43:34;;;;;;;;;;;;;;;18.97;32.36;95876.63;5116566;28;2021;-51
2022/03/28 11:46:01;;;;;;;;;;;;;;;18.91;32.28;95878.22;5116443;28;957;-51
2022/03/28 11:48:27;;;;;;;;;;;;;;;18.80;32.33;95870.63;5116707;28;964;-51
2022/03/28 11:50:55;;;;;;;;;;;;;;;18.80;32.34;95865.22;5119088;27;1188;-51
2022/03/28 11:53:21;;;;;;;;;;;;;;;18.91;32.48;95863.81;5137228;27;1028;-51
2022/03/28 11:55:48;;;;;;;;;;;;;;;18.84;32.06;95861.06;5136973;27;977;-51
2022/03/28 11:58:15;;;;;;;;;;;;;;;18.71;32.29;95855.50;5135571;27;1051;-51
2022/03/28 12:00:41;;;;;;;;;;;;;;;18.79;32.11;95851.81;5136816;27;1218;-50
2022/03/28 12:03:11;;;;;;;;;;;;;;;18.88;32.14;95848.81;5136626;27;1914;-50
2022/03/28 12:05:39;;;;;;;;;;;;;;;18.95;31.96;95842.59;5136598;27;1067;-51
2022/03/28 12:08:09;;;;;;;;;;;;;;;18.95;31.48;95842.59;5136620;27;1015;-50
2022/03/28 12:10:36;;;;;;;;;;;;;;;19.00;31.65;95835.56;5136523;27;1051;-51
2022/03/28 12:13:05;;;;;;;;;;;;;;;19.00;30.77;95834.72;5136174;27;1210;-51
2022/03/28 12:15:32;;;;;;;;;;;;;;;19.04;31.09;95827.88;5136755;27;1130;-50
2022/03/28 12:17:59;;;;;;;;;;;;;;;19.09;31.65;95836.25;5136556;27;964;-51
2022/03/28 12:20:30;;;;;;;;;;;;;;;19.10;32.03;95824.34;5136595;27;961;-51
2022/03/28 12:22:58;;;;;;;;;;;;;;;19.07;32.21;95827.50;5136417;27;1978;-50
2022/03/28 12:25:32;;;;;;;;;;;;;;;19.06;32.08;95823.91;5136091;27;1198;-51
2022/03/28 12:27:59;;;;;;;;;;;;;;;19.10;31.53;95814.38;5136017;27;1016;-51
2022/03/28 12:30:31;;;;;;;;;;;;;;;19.13;31.27;95812.31;5136491;27;1062;-51
2022/03/28 12:32:57;;;;;;;;;;;;;;;19.17;31.61;95810.88;5136074;27;963;-51
2022/03/28 12:35:23;;;;;;;;;;;;;;;19.18;32.12;95807.97;5136212;27;953;-51
2022/03/28 12:37:56;;;;;;;;;;;;;;;19.18;32.40;95817.94;5136091;27;1024;-51
2022/03/28 12:40:28;;;;;;;;;;;;;;;19.15;32.41;95808.34;5136272;27;993;-51
2022/03/28 12:42:55;;;;;;;;;;;;;;;19.14;32.20;95806.66;5135431;27;1982;-50
2022/03/28 12:45:25;;;;;;;;;;;;;;;19.13;32.41;95802.28;5135976;27;1007;-51
2022/03/28 12:47:57;;;;;;;;;;;;;;;19.10;32.43;95803.53;5135609;27;1019;-50
2022/03/28 12:50:26;;;;;;;;;;;;;;;19.19;32.29;95796.06;5135956;27;1047;-50
2022/03/28 12:53:06;;;;;;;;;;;;;;;19.26;33.08;95790.69;5115963;27;1274;-51
2022/03/28 12:55:32;;;;;;;;;;;;;;;19.29;32.62;95793.00;5115259;28;2154;-51
2022/03/28 12:58:00;;;;;;;;;;;;;;;19.26;32.43;95794.25;5114902;28;976;-51
2022/03/28 13:00:27;;;;;;;;;;;;;;;19.23;31.20;95794.63;5115062;28;1036;-51
2022/03/28 13:02:53;;;;;;;;;;;;;;;19.12;30.15;95784.34;5114900;28;1914;-50
2022/03/28 13:05:19;;;;;;;;;;;;;;;19.18;28.91;95780.84;5115213;28;1028;-51
2022/03/28 13:07:47;;;;;;;;;;;;;;;19.14;28.29;95793.13;5114942;28;956;-51
2022/03/28 13:10:21;;;;;;;;;;;;;;;19.01;26.29;95774.91;5115227;28;973;-51
2022/03/28 13:12:48;;;;;;;;;;;;;;;19.07;26.52;95774.13;5114681;28;999;-51
2022/03/28 13:15:18;;;;;;;;;;;;;;;19.10;25.85;95776.44;5115077;28;1045;-50